createdAt,value
2023-01-25T00:09:30.325Z,0.4414336852006689
2023-01-25T00:15:54.698Z,0.5012770432692307
2023-01-25T00:22:18.209Z,0.7061611622073578
2023-01-25T00:28:42.414Z,0.6881715091973244
2023-01-25T00:35:05.854Z,0.7136052466555184
2023-01-25T00:41:30.020Z,0.6005323735367892
2023-01-25T00:47:53.758Z,0.38442921718227424
2023-01-25T00:54:16.534Z,0.47196710388795987
2023-01-25T01:00:39.544Z,0.42685122282608695
2023-01-25T01:07:05.630Z,0.47560618729096993
2023-01-25T01:13:27.509Z,0.5359296613712374
2023-01-25T01:19:51.432Z,0.5722394962374582
2023-01-25T01:26:15.304Z,0.5052479619565217
2023-01-25T01:39:07.104Z,0.34187068875418064
2023-01-25T01:53:04.486Z,0.5062036214464882
2023-01-25T01:59:28.409Z,0.40534333193979943
2023-01-25T02:05:52.758Z,0.5425879232859533
2023-01-25T02:12:16.653Z,0.6293883256688964
2023-01-25T02:19:32.907Z,0.5330548442725753
2023-01-25T02:33:07.320Z,0.6745277226170568
2023-01-25T02:39:30.852Z,0.7305660796404682
2023-01-25T02:45:55.684Z,0.5414872491638796
2023-01-25T02:55:26.712Z,0.5069620087792642
2023-01-25T03:12:13.148Z,0.44965118102006685
2023-01-25T03:18:37.327Z,0.3540858852424749
2023-01-25T03:25:00.833Z,0.2021281877090301
2023-01-25T03:37:28.998Z,0.29176029473244147
2023-01-25T03:47:02.534Z,0.22777160848662206
2023-01-25T03:53:27.311Z,0.24788618311036786
2023-01-25T03:59:52.701Z,0.4012744303929766
2023-01-25T04:06:18.105Z,0.27652200041806024
2023-01-25T04:13:34.023Z,0.406762776964883
2023-01-25T04:19:59.760Z,0.5081978992474916
2023-01-25T04:26:25.702Z,0.42574205685618727
2023-01-25T04:36:13.320Z,0.39273620401337794
2023-01-25T04:42:37.383Z,0.531864679138796
2023-01-25T04:54:36.276Z,0.32878605769230773
2023-01-25T05:00:59.881Z,0.1323323839882943
2023-01-25T05:07:23.499Z,0.3727379023829432
2023-01-25T05:13:47.831Z,0.13180197010869565
2023-01-25T05:28:17.360Z,0.20888769857859532
2023-01-25T05:34:55.008Z,-0.017680027173913034
2023-01-25T05:44:14.215Z,0.15426878658026755
2023-01-25T05:50:36.822Z,0.16026337792642142
2023-01-25T05:57:00.410Z,0.17951178407190635
2023-01-25T06:04:22.139Z,0.12919105351170568
2023-01-25T06:14:49.011Z,0.11911057692307693
2023-01-25T06:25:52.642Z,-0.08987314485785955
2023-01-25T06:32:17.456Z,-0.008125391931438127
2023-01-25T06:38:39.397Z,-0.02669771634615386
2023-01-25T06:45:03.792Z,0.06809286162207358
2023-01-25T06:51:28.970Z,0.14872752926421406
2023-01-25T06:57:53.093Z,0.07180771843645486
2023-01-25T07:10:20.497Z,0.15854541178929765
2023-01-25T07:16:44.478Z,-0.0037690739966555185
2023-01-25T07:23:07.254Z,-0.0423958768812709
2023-01-25T07:29:30.477Z,-0.08209918478260869
2023-01-25T07:35:56.786Z,-0.061209239130434794
2023-01-25T07:46:26.477Z,0.10731344063545152
2023-01-25T07:53:05.130Z,-0.015748458403010025
2023-01-25T07:59:29.543Z,-0.11927453490802675
2023-01-25T08:11:40.127Z,0.03956939799331103
2023-01-25T08:18:07.457Z,0.1355194397993311
2023-01-25T08:27:46.000Z,0.09504859949832775
2023-01-25T08:51:06.948Z,0.04154342600334448
2023-01-25T08:59:36.695Z,0.14313140154682277
2023-01-25T09:08:17.552Z,0.12173717077759197
2023-01-25T09:19:44.012Z,-0.03928720735785954
2023-01-25T09:26:10.155Z,0.014030492265886286
2023-01-25T09:32:35.739Z,0.016066576086956524
2023-01-25T09:46:57.557Z,-0.1508870714882943
2023-01-25T09:57:43.795Z,0.051152278428093646
2023-01-25T10:04:09.553Z,-0.11467913879598662
2023-01-25T10:10:34.625Z,-0.107262489548495
2023-01-25T10:17:51.055Z,-0.1389292433110368
2023-01-25T10:28:32.378Z,-0.05174082880434783
2023-01-25T10:35:00.689Z,-0.0757348714464883
2023-01-25T10:41:43.094Z,-0.2035260765050167
2023-01-25T10:48:09.822Z,0.041057431020066884
2023-01-25T11:05:18.095Z,-0.18511705685618732
2023-01-25T11:11:44.936Z,-0.14402173913043478
2023-01-25T11:18:32.980Z,-0.2964667380852843
2023-01-25T11:28:38.680Z,-0.10421195652173912
2023-01-25T11:38:29.338Z,0.16920790656354515
2023-01-25T11:46:19.889Z,0.14414127821906353
2023-01-25T11:52:45.292Z,-0.028530649038461545
2023-01-25T11:59:11.345Z,-0.08066471571906354
2023-01-25T12:06:48.564Z,-0.21136993102006693
2023-01-25T12:13:14.607Z,-0.320550924958194
2023-01-25T12:19:40.246Z,-0.2087864496237458
2023-01-25T12:28:08.383Z,-0.271434077132107
2023-01-25T12:34:33.798Z,-0.15481814381270903
2023-01-25T12:48:22.460Z,-0.38636405204849494
2023-01-25T13:01:08.071Z,-0.2806137646321071
2023-01-25T13:12:48.129Z,-0.2645112614966555
2023-01-25T13:19:14.146Z,-0.2355063754180602
2023-01-25T13:25:40.266Z,-0.44205424331103677
2023-01-25T13:39:14.211Z,-0.15968266617892976
2023-01-25T13:53:52.035Z,-0.1612125052257525
2023-01-25T14:00:20.175Z,-0.2607506793478261
2023-01-25T14:15:43.814Z,-0.23992801525919735
2023-01-25T14:22:10.878Z,-0.4384360629180602
2023-01-25T14:28:35.041Z,-0.2951949205685619
2023-01-25T14:38:13.769Z,-0.5493722564799333
2023-01-25T14:44:39.435Z,-0.4144191576086956
2023-01-25T14:51:04.227Z,-0.7862098923494983
2023-01-25T14:57:29.393Z,-0.6217548076923076
2023-01-25T15:03:53.869Z,-0.8357193248327759
2023-01-25T15:11:18.907Z,-0.6099929452341137
2023-01-25T15:18:14.042Z,-0.5770445756688963
2023-01-25T15:24:40.566Z,-0.5221068927675585
2023-01-25T15:31:07.689Z,-0.545674383361204
2023-01-25T15:50:56.510Z,-0.5122890102424749
2023-01-25T15:57:19.655Z,-0.6351379598662207
2023-01-25T16:35:52.745Z,-0.915725595735786
2023-01-25T16:48:22.516Z,-0.6434854462792642
2023-01-25T16:54:45.332Z,-0.8340608016304347
2023-01-25T17:01:11.605Z,-0.7081632786371237
2023-01-25T17:07:33.805Z,-0.702639658235786
2023-01-25T17:13:57.968Z,-0.6353646268812709
2023-01-25T17:28:37.026Z,-0.6265860158862876
2023-01-25T17:37:18.663Z,-0.709659150292642
2023-01-25T17:46:15.980Z,-0.6586414349916389
2023-01-25T17:52:40.449Z,-0.6363712374581939
2023-01-25T17:59:06.041Z,-0.6597055288461539
2023-01-25T18:05:31.131Z,-0.7412174696906354
2023-01-25T18:11:55.106Z,-0.6713086590719064
2023-01-25T18:18:20.480Z,-0.809859035326087
2023-01-25T18:24:43.443Z,-0.8129017297240801
2023-01-25T18:31:09.164Z,-1.0053805654264214
2023-01-25T18:37:32.534Z,-0.8989848975752508
2023-01-25T18:46:06.603Z,-0.8872785587374583
2023-01-25T18:52:32.357Z,-0.8547946279264214
2023-01-25T19:04:57.394Z,-1.0392695704431438
2023-01-25T19:11:22.618Z,-1.1198389161789297
2023-01-25T19:19:57.945Z,-1.1527278428093646
2023-01-25T19:30:29.007Z,-1.1803688074832774
2023-01-25T19:36:58.818Z,-1.1138332201086956
2023-01-25T19:43:26.801Z,-1.077385556020067
2023-01-25T19:53:14.722Z,-1.015962714255853
2023-01-25T19:59:43.165Z,-1.0599896791387962
2023-01-25T20:10:08.042Z,-1.2034418112458194
2023-01-25T20:20:36.848Z,-1.0154714935200668
2023-01-25T20:27:04.439Z,-1.0395386966973243
2023-01-25T20:43:51.591Z,-0.9420333403010034
2023-01-25T20:50:18.262Z,-1.1265246132943145
2023-01-25T20:56:41.655Z,-1.0480364234949835
2023-01-25T21:18:41.775Z,-1.0040447324414714
2023-01-25T21:25:08.109Z,-0.9174311507107025
2023-01-25T21:40:22.400Z,-1.1034424644648828
2023-01-25T21:46:52.305Z,-1.0681764736622072
2023-01-25T22:03:31.843Z,-1.061690008361204
2023-01-25T22:14:59.585Z,-1.0394420202759196
2023-01-25T22:21:22.441Z,-0.8414591607441471
2023-01-25T22:27:45.428Z,-0.8933476170568561
2023-01-25T22:34:08.784Z,-1.0810076557274246
2023-01-25T22:40:31.750Z,-1.0263482441471572
2023-01-25T22:50:41.729Z,-0.924797502090301
2023-01-25T22:57:05.927Z,-0.8931634092809363
2023-01-25T23:07:14.324Z,-0.9290414663461539
2023-01-25T23:13:37.772Z,-0.8277637698578594
2023-01-25T23:29:17.902Z,-0.9426519387541806
2023-01-25T23:37:08.137Z,-0.8138443248327759
2023-01-25T23:43:32.002Z,-0.8201857755016722
2023-01-25T23:49:54.687Z,-0.9025756427675585
2023-01-25T23:56:19.028Z,-0.9350321383779265
